createdAt,value
2023-09-06T00:02:26.229Z,100.00
2023-09-06T00:04:53.308Z,100.00
2023-09-06T00:07:24.353Z,100.00
2023-09-06T00:09:52.336Z,100.00
2023-09-06T00:12:20.317Z,100.00
2023-09-06T00:14:49.039Z,100.00
2023-09-06T00:17:17.583Z,100.00
2023-09-06T00:19:46.253Z,100.00
2023-09-06T00:22:14.536Z,100.00
2023-09-06T00:24:42.609Z,100.00
2023-09-06T00:27:09.752Z,100.00
2023-09-06T00:29:37.611Z,100.00
2023-09-06T00:32:06.091Z,100.00
2023-09-06T00:34:35.232Z,100.00
2023-09-06T00:37:11.645Z,100.00
2023-09-06T00:39:40.821Z,100.00
2023-09-06T00:42:09.822Z,100.00
2023-09-06T00:44:37.288Z,100.00
2023-09-06T00:47:04.874Z,100.00
2023-09-06T00:49:34.123Z,100.00
2023-09-06T00:52:01.822Z,100.00
2023-09-06T00:54:29.107Z,100.00
2023-09-06T00:56:57.970Z,100.00
2023-09-06T00:59:31.002Z,100.00
2023-09-06T01:02:00.679Z,100.00
2023-09-06T01:04:28.693Z,100.00
2023-09-06T01:06:59.591Z,100.00
2023-09-06T01:09:30.777Z,100.00
2023-09-06T01:11:58.784Z,100.00
2023-09-06T01:14:27.157Z,100.00
2023-09-06T01:16:58.855Z,100.00
2023-09-06T01:19:30.573Z,100.00
2023-09-06T01:22:36.357Z,100.00
2023-09-06T01:25:05.135Z,100.00
2023-09-06T01:27:40.444Z,100.00
2023-09-06T01:30:16.352Z,100.00
2023-09-06T01:35:31.768Z,100.00
2023-09-06T01:38:03.020Z,100.00
2023-09-06T01:43:14.404Z,100.00
2023-09-06T01:45:57.360Z,100.00
2023-09-06T01:48:26.622Z,100.00
2023-09-06T01:50:55.495Z,100.00
2023-09-06T01:53:27.511Z,100.00
2023-09-06T01:55:55.431Z,100.00
2023-09-06T01:58:23.423Z,100.00
2023-09-06T02:00:51.316Z,100.00
2023-09-06T02:03:20.282Z,100.00
2023-09-06T02:05:48.115Z,100.00
2023-09-06T02:08:15.960Z,100.00
2023-09-06T02:10:49.433Z,100.00
2023-09-06T02:13:16.866Z,100.00
2023-09-06T02:15:47.788Z,100.00
2023-09-06T02:18:21.884Z,100.00
2023-09-06T02:20:52.819Z,100.00
2023-09-06T02:23:30.104Z,100.00
2023-09-06T02:26:10.956Z,100.00
2023-09-06T02:28:41.424Z,100.00
2023-09-06T02:31:13.116Z,100.00
2023-09-06T02:33:48.994Z,100.00
2023-09-06T02:36:18.801Z,100.00
2023-09-06T02:38:48.397Z,100.00
2023-09-06T02:41:16.589Z,100.00
2023-09-06T02:43:44.100Z,100.00
2023-09-06T02:46:13.861Z,100.00
2023-09-06T02:48:43.262Z,100.00
2023-09-06T02:51:11.846Z,100.00
2023-09-06T02:53:46.172Z,100.00
2023-09-06T02:56:17.059Z,100.00
2023-09-06T02:58:45.106Z,100.00
2023-09-06T03:01:21.863Z,100.00
2023-09-06T03:03:52.988Z,100.00
2023-09-06T03:06:34.388Z,100.00
2023-09-06T03:09:10.485Z,100.00
2023-09-06T03:11:40.101Z,100.00
2023-09-06T03:14:07.628Z,100.00
2023-09-06T03:16:40.423Z,100.00
2023-09-06T03:19:12.832Z,100.00
2023-09-06T03:21:42.085Z,100.00
2023-09-06T03:24:14.059Z,100.00
2023-09-06T03:26:45.710Z,100.00
2023-09-06T03:29:17.522Z,100.00
2023-09-06T03:31:48.552Z,100.00
2023-09-06T03:34:17.553Z,100.00
2023-09-06T03:36:48.361Z,100.00
2023-09-06T03:39:17.087Z,100.00
2023-09-06T03:41:45.085Z,100.00
2023-09-06T03:44:19.724Z,100.00
2023-09-06T03:46:51.084Z,100.00
2023-09-06T03:49:20.507Z,100.00
2023-09-06T03:51:47.937Z,100.00
2023-09-06T03:54:19.216Z,100.00
2023-09-06T03:56:49.044Z,100.00
2023-09-06T03:59:16.878Z,100.00
2023-09-06T04:01:47.876Z,100.00
2023-09-06T04:04:16.059Z,100.00
2023-09-06T04:07:40.161Z,100.00
2023-09-06T04:10:40.613Z,100.00
2023-09-06T04:13:12.912Z,100.00
2023-09-06T04:15:42.224Z,100.00
2023-09-06T04:18:14.242Z,100.00
2023-09-06T04:20:47.996Z,100.00
2023-09-06T04:23:19.377Z,100.00
2023-09-06T04:25:52.529Z,100.00
2023-09-06T04:28:30.681Z,100.00
2023-09-06T04:31:01.895Z,100.00
2023-09-06T04:33:35.207Z,100.00
2023-09-06T04:36:12.746Z,100.00
2023-09-06T04:38:43.951Z,100.00
2023-09-06T04:41:13.029Z,100.00
2023-09-06T04:43:50.736Z,100.00
2023-09-06T04:46:18.693Z,100.00
2023-09-06T04:48:49.583Z,100.00
2023-09-06T04:51:18.794Z,100.00
2023-09-06T04:53:47.520Z,100.00
2023-09-06T04:56:20.100Z,100.00
2023-09-06T04:58:51.243Z,100.00
2023-09-06T05:01:19.874Z,100.00
2023-09-06T05:03:48.713Z,100.00
2023-09-06T05:06:17.353Z,100.00
2023-09-06T05:08:46.196Z,100.00
2023-09-06T05:11:19.353Z,100.00
2023-09-06T05:13:51.074Z,100.00
2023-09-06T05:16:20.865Z,100.00
2023-09-06T05:18:50.417Z,100.00
2023-09-06T05:21:21.677Z,100.00
2023-09-06T05:23:54.010Z,100.00
2023-09-06T05:26:24.117Z,100.00
2023-09-06T05:28:52.341Z,100.00
2023-09-06T05:31:20.598Z,100.00
2023-09-06T05:33:50.329Z,100.00
2023-09-06T05:36:21.837Z,100.00
2023-09-06T05:38:49.617Z,100.00
2023-09-06T05:41:21.724Z,100.00
2023-09-06T05:43:50.493Z,100.00
2023-09-06T05:46:32.406Z,100.00
2023-09-06T05:49:06.735Z,100.00
2023-09-06T05:51:38.259Z,100.00
2023-09-06T05:54:06.379Z,100.00
2023-09-06T05:56:37.230Z,100.00
2023-09-06T05:59:07.435Z,100.00
2023-09-06T06:01:35.933Z,100.00
2023-09-06T06:04:04.421Z,100.00
2023-09-06T06:06:32.296Z,100.00
2023-09-06T06:09:02.200Z,100.00
2023-09-06T06:11:29.516Z,100.00
2023-09-06T06:14:09.734Z,100.00
2023-09-06T06:16:48.073Z,100.00
2023-09-06T06:19:15.911Z,100.00
2023-09-06T06:21:45.437Z,100.00
2023-09-06T06:24:15.420Z,100.00
2023-09-06T06:26:43.289Z,100.00
2023-09-06T06:29:11.903Z,100.00
2023-09-06T06:31:39.973Z,100.00
2023-09-06T06:34:08.000Z,100.00
2023-09-06T06:36:35.613Z,100.00
2023-09-06T06:39:03.036Z,100.00
2023-09-06T06:41:30.568Z,100.00
2023-09-06T06:43:57.961Z,100.00
2023-09-06T06:46:35.067Z,100.00
2023-09-06T06:49:06.047Z,100.00
2023-09-06T06:51:43.187Z,100.00
2023-09-06T06:54:16.096Z,100.00
2023-09-06T06:56:43.608Z,100.00
2023-09-06T06:59:11.266Z,100.00
2023-09-06T07:01:40.259Z,100.00
2023-09-06T07:04:07.627Z,100.00
2023-09-06T07:06:37.204Z,100.00
2023-09-06T07:09:05.273Z,100.00
2023-09-06T07:11:33.559Z,100.00
2023-09-06T07:14:02.002Z,100.00
2023-09-06T07:16:35.582Z,100.00
2023-09-06T07:19:03.911Z,100.00
2023-09-06T07:21:32.562Z,100.00
2023-09-06T07:23:59.997Z,100.00
2023-09-06T07:26:26.772Z,100.00
2023-09-06T07:28:55.013Z,100.00
2023-09-06T07:31:22.867Z,100.00
2023-09-06T07:33:51.402Z,100.00
2023-09-06T07:36:21.025Z,100.00
2023-09-06T07:38:50.704Z,100.00
2023-09-06T07:41:21.407Z,100.00
2023-09-06T07:43:49.141Z,100.00
2023-09-06T07:46:17.289Z,100.00
2023-09-06T07:48:45.406Z,100.00
2023-09-06T07:51:13.591Z,100.00
2023-09-06T07:53:41.076Z,100.00
2023-09-06T07:56:09.760Z,100.00
2023-09-06T07:59:23.638Z,100.00
2023-09-06T08:01:55.577Z,100.00
2023-09-06T08:04:23.409Z,100.00
2023-09-06T08:06:51.352Z,100.00
2023-09-06T08:09:18.711Z,100.00
2023-09-06T08:11:47.259Z,100.00
2023-09-06T08:14:14.482Z,100.00
2023-09-06T08:16:42.134Z,100.00
2023-09-06T08:19:09.638Z,100.00
2023-09-06T08:21:36.868Z,100.00
2023-09-06T08:24:05.171Z,100.00
2023-09-06T08:26:32.956Z,100.00
2023-09-06T08:29:00.935Z,100.00
2023-09-06T08:31:28.841Z,100.00
2023-09-06T08:33:57.748Z,100.00
2023-09-06T08:36:29.150Z,100.00
2023-09-06T08:38:57.082Z,100.00
2023-09-06T08:41:27.953Z,100.00
2023-09-06T08:43:56.717Z,100.00
2023-09-06T08:46:34.657Z,100.00
2023-09-06T08:49:05.053Z,100.00
2023-09-06T08:51:37.186Z,100.00
2023-09-06T08:54:07.903Z,100.00
2023-09-06T08:56:36.768Z,100.00
2023-09-06T08:59:05.084Z,100.00
2023-09-06T09:01:33.286Z,100.00
2023-09-06T09:04:01.306Z,100.00
2023-09-06T09:06:30.991Z,100.00
2023-09-06T09:09:19.048Z,99.17
2023-09-06T09:11:52.281Z,96.59
2023-09-06T09:14:22.722Z,94.62
2023-09-06T09:17:00.686Z,93.36
2023-09-06T09:19:29.626Z,92.65
2023-09-06T09:21:58.067Z,92.69
2023-09-06T09:24:28.580Z,89.40
2023-09-06T09:26:58.159Z,88.03
2023-09-06T09:29:25.916Z,86.59
2023-09-06T09:31:55.242Z,85.36
2023-09-06T09:34:22.744Z,83.27
2023-09-06T09:36:52.121Z,83.07
2023-09-06T09:39:21.673Z,81.52
2023-09-06T09:41:59.054Z,83.55
2023-09-06T09:44:27.689Z,81.34
2023-09-06T09:47:06.675Z,80.19
2023-09-06T09:49:45.505Z,79.32
2023-09-06T09:52:14.293Z,80.65
2023-09-06T09:54:44.584Z,80.58
2023-09-06T09:57:13.622Z,79.68
2023-09-06T09:59:42.752Z,79.01
2023-09-06T10:02:27.965Z,80.26
2023-09-06T10:05:04.471Z,78.89
2023-09-06T10:07:48.262Z,80.31
2023-09-06T10:10:19.412Z,79.88
2023-09-06T10:12:53.511Z,81.29
2023-09-06T10:15:25.232Z,77.81
2023-09-06T10:17:57.795Z,76.12
2023-09-06T10:20:26.095Z,76.63
2023-09-06T10:22:58.769Z,76.97
2023-09-06T10:25:29.692Z,79.14
2023-09-06T10:27:59.208Z,78.84
2023-09-06T10:30:50.154Z,75.45
2023-09-06T10:33:38.085Z,77.57
2023-09-06T10:36:10.789Z,74.96
2023-09-06T10:38:55.706Z,74.47
2023-09-06T10:41:24.588Z,74.65
2023-09-06T10:44:02.864Z,74.97
2023-09-06T10:46:37.829Z,72.50
2023-09-06T10:49:14.822Z,71.78
2023-09-06T10:51:58.113Z,71.21
2023-09-06T10:54:44.104Z,71.88
2023-09-06T10:57:16.080Z,72.29
2023-09-06T10:59:45.976Z,72.42
2023-09-06T11:02:23.022Z,71.00
2023-09-06T11:05:05.621Z,70.78
2023-09-06T11:07:49.309Z,71.67
2023-09-06T11:10:21.901Z,69.82
2023-09-06T11:12:49.459Z,71.49
2023-09-06T11:15:17.076Z,70.62
2023-09-06T11:17:47.465Z,70.70
2023-09-06T11:20:18.729Z,70.54
2023-09-06T11:22:49.931Z,71.26
2023-09-06T11:25:22.499Z,70.69
2023-09-06T11:27:51.855Z,69.94
2023-09-06T11:30:28.204Z,69.94
2023-09-06T11:32:57.130Z,69.75
2023-09-06T11:35:34.318Z,68.97
2023-09-06T11:38:03.656Z,69.23
2023-09-06T11:40:33.719Z,68.11
2023-09-06T11:43:06.859Z,68.00
2023-09-06T11:45:36.080Z,67.24
2023-09-06T11:48:10.062Z,67.66
2023-09-06T11:50:40.102Z,67.12
2023-09-06T11:53:11.898Z,66.48
2023-09-06T11:55:44.169Z,67.64
2023-09-06T11:58:20.280Z,67.40
2023-09-06T12:00:49.669Z,66.43
2023-09-06T12:03:18.685Z,63.70
2023-09-06T12:05:50.230Z,63.69
2023-09-06T12:08:24.205Z,63.79
2023-09-06T12:11:07.049Z,63.58
2023-09-06T12:13:37.440Z,62.23
2023-09-06T12:16:09.574Z,62.17
2023-09-06T12:18:38.345Z,61.70
2023-09-06T12:21:07.489Z,62.48
2023-09-06T12:23:38.467Z,62.31
2023-09-06T12:26:08.308Z,63.76
2023-09-06T12:28:37.238Z,62.64
2023-09-06T12:33:38.605Z,61.54
2023-09-06T12:36:08.587Z,60.04
2023-09-06T12:38:36.925Z,59.57
2023-09-06T12:41:06.402Z,59.69
2023-09-06T12:43:37.748Z,59.78
2023-09-06T12:46:08.179Z,59.22
2023-09-06T12:48:39.985Z,58.47
2023-09-06T12:51:08.829Z,57.62
2023-09-06T12:53:36.391Z,57.71
2023-09-06T12:56:04.739Z,57.71
2023-09-06T12:58:33.886Z,57.94
2023-09-06T13:01:06.988Z,57.77
2023-09-06T13:03:35.173Z,57.71
2023-09-06T13:06:04.532Z,57.02
2023-09-06T13:08:37.815Z,57.62
2023-09-06T13:11:06.407Z,58.17
2023-09-06T13:13:34.954Z,57.26
2023-09-06T13:16:03.479Z,57.64
2023-09-06T13:18:31.108Z,57.18
2023-09-06T13:20:59.191Z,56.98
2023-09-06T13:23:26.666Z,56.76
2023-09-06T13:25:55.252Z,56.72
2023-09-06T13:28:22.619Z,57.64
2023-09-06T13:30:49.958Z,57.83
2023-09-06T13:33:17.562Z,57.42
2023-09-06T13:35:45.133Z,56.22
2023-09-06T13:38:15.504Z,55.92
2023-09-06T13:40:43.033Z,56.28
2023-09-06T13:43:11.867Z,56.05
2023-09-06T13:45:42.071Z,56.64
2023-09-06T13:48:12.079Z,56.45
2023-09-06T13:50:40.255Z,56.30
2023-09-06T13:53:08.019Z,55.23
2023-09-06T13:55:35.762Z,55.35
2023-09-06T13:58:06.531Z,55.58
2023-09-06T14:00:34.503Z,55.31
2023-09-06T14:03:02.656Z,55.39
2023-09-06T14:05:32.959Z,55.45
2023-09-06T14:08:01.956Z,56.16
2023-09-06T14:10:30.351Z,55.65
2023-09-06T14:12:57.704Z,55.29
2023-09-06T14:15:25.271Z,55.50
2023-09-06T14:17:53.422Z,55.49
2023-09-06T14:20:21.648Z,55.97
2023-09-06T14:22:49.539Z,55.58
2023-09-06T14:25:18.929Z,56.17
2023-09-06T14:27:45.749Z,54.77
2023-09-06T14:30:13.823Z,55.03
2023-09-06T14:32:42.421Z,54.87
2023-09-06T14:35:09.693Z,54.71
2023-09-06T14:37:37.111Z,54.77
2023-09-06T14:40:05.510Z,53.98
2023-09-06T14:42:34.242Z,54.46
2023-09-06T14:45:01.982Z,54.80
2023-09-06T14:47:30.303Z,54.73
2023-09-06T14:49:58.644Z,55.14
2023-09-06T14:52:26.126Z,55.91
2023-09-06T14:54:54.076Z,54.55
2023-09-06T14:57:22.681Z,55.23
2023-09-06T14:59:52.462Z,54.63
2023-09-06T15:02:20.671Z,55.14
2023-09-06T15:04:48.298Z,55.72
2023-09-06T15:07:15.673Z,56.76
2023-09-06T15:09:43.803Z,55.43
2023-09-06T15:12:11.411Z,55.17
2023-09-06T15:14:40.618Z,55.47
2023-09-06T15:17:08.970Z,54.90
2023-09-06T15:19:36.658Z,55.42
2023-09-06T15:22:04.962Z,55.70
2023-09-06T15:24:32.821Z,55.46
2023-09-06T15:27:00.207Z,55.70
2023-09-06T15:29:27.628Z,56.69
2023-09-06T15:31:55.357Z,56.83
2023-09-06T15:34:24.249Z,56.79
2023-09-06T15:36:52.531Z,57.26
2023-09-06T15:39:20.891Z,57.54
2023-09-06T15:41:48.029Z,57.65
2023-09-06T15:44:15.879Z,57.95
2023-09-06T15:46:43.569Z,58.20
2023-09-06T15:49:10.652Z,58.42
2023-09-06T15:51:39.080Z,58.82
2023-09-06T15:54:06.526Z,58.72
2023-09-06T15:56:33.845Z,58.92
2023-09-06T15:59:01.369Z,59.29
2023-09-06T16:01:32.076Z,59.28
2023-09-06T16:04:02.957Z,60.06
2023-09-06T16:06:33.506Z,60.05
2023-09-06T16:09:01.308Z,60.27
2023-09-06T16:11:29.083Z,60.32
2023-09-06T16:13:56.461Z,60.44
2023-09-06T16:16:24.862Z,60.38
2023-09-06T16:18:54.401Z,60.56
2023-09-06T16:21:21.929Z,60.90
2023-09-06T16:23:49.362Z,61.35
2023-09-06T16:26:17.210Z,61.96
2023-09-06T16:28:44.905Z,61.67
2023-09-06T16:31:12.562Z,62.18
2023-09-06T16:33:39.545Z,62.55
2023-09-06T16:36:08.706Z,63.13
2023-09-06T16:38:36.934Z,63.41
2023-09-06T16:41:06.833Z,64.38
2023-09-06T16:43:34.029Z,65.13
2023-09-06T16:46:01.855Z,65.67
2023-09-06T16:48:29.396Z,66.55
2023-09-06T16:50:56.888Z,67.15
2023-09-06T16:53:24.010Z,68.38
2023-09-06T16:55:51.559Z,69.23
2023-09-06T16:58:18.486Z,70.11
2023-09-06T17:00:45.410Z,71.73
2023-09-06T17:03:16.574Z,73.18
2023-09-06T17:05:49.355Z,74.43
2023-09-06T17:08:25.540Z,76.34
2023-09-06T17:10:54.001Z,78.28
2023-09-06T17:13:22.444Z,80.43
2023-09-06T17:15:50.398Z,83.35
2023-09-06T17:18:18.373Z,85.29
2023-09-06T17:20:46.336Z,86.95
2023-09-06T17:23:13.582Z,88.54
2023-09-06T17:25:42.311Z,90.44
2023-09-06T17:28:10.717Z,92.34
2023-09-06T17:30:39.203Z,94.18
2023-09-06T17:33:13.360Z,96.58
2023-09-06T17:35:45.695Z,99.44
2023-09-06T17:38:14.869Z,100.00
2023-09-06T17:40:47.529Z,100.00
2023-09-06T17:43:17.247Z,100.00
2023-09-06T17:45:46.872Z,100.00
2023-09-06T17:48:15.507Z,100.00
2023-09-06T17:50:46.325Z,100.00
2023-09-06T17:53:15.392Z,100.00
2023-09-06T17:55:43.188Z,100.00
2023-09-06T17:58:10.689Z,100.00
2023-09-06T18:00:43.847Z,100.00
2023-09-06T18:03:16.573Z,100.00
2023-09-06T18:05:56.809Z,100.00
2023-09-06T18:08:28.321Z,100.00
2023-09-06T18:10:56.540Z,100.00
2023-09-06T18:13:24.687Z,100.00
2023-09-06T18:15:54.230Z,100.00
2023-09-06T18:18:21.413Z,100.00
2023-09-06T18:20:49.140Z,100.00
2023-09-06T18:23:17.259Z,100.00
2023-09-06T18:25:46.523Z,100.00
2023-09-06T18:28:14.553Z,100.00
2023-09-06T18:30:48.717Z,100.00
2023-09-06T18:33:21.347Z,100.00
2023-09-06T18:35:49.726Z,100.00
2023-09-06T18:38:17.880Z,100.00
2023-09-06T18:40:47.116Z,100.00
2023-09-06T18:43:17.592Z,100.00
2023-09-06T18:45:45.807Z,100.00
2023-09-06T18:48:18.212Z,100.00
2023-09-06T18:50:52.805Z,100.00
2023-09-06T18:53:22.936Z,100.00
2023-09-06T18:55:52.372Z,100.00
2023-09-06T18:58:19.434Z,100.00
2023-09-06T19:00:48.147Z,100.00
2023-09-06T19:03:16.099Z,100.00
2023-09-06T19:05:45.085Z,100.00
2023-09-06T19:08:14.234Z,100.00
2023-09-06T19:10:42.369Z,100.00
2023-09-06T19:13:10.529Z,100.00
2023-09-06T19:15:37.652Z,100.00
2023-09-06T19:18:04.955Z,100.00
2023-09-06T19:20:32.008Z,100.00
2023-09-06T19:22:59.546Z,100.00
2023-09-06T19:25:27.041Z,100.00
2023-09-06T19:27:54.238Z,100.00
2023-09-06T19:30:21.948Z,100.00
2023-09-06T19:32:49.729Z,100.00
2023-09-06T19:35:17.304Z,100.00
2023-09-06T19:37:45.623Z,100.00
2023-09-06T19:40:14.113Z,100.00
2023-09-06T19:42:41.683Z,100.00
2023-09-06T19:45:11.362Z,100.00
2023-09-06T19:47:40.234Z,100.00
2023-09-06T19:50:08.309Z,100.00
2023-09-06T19:52:35.339Z,100.00
2023-09-06T19:55:04.294Z,100.00
2023-09-06T19:57:31.768Z,100.00
2023-09-06T19:59:58.924Z,100.00
2023-09-06T20:02:26.775Z,100.00
2023-09-06T20:04:54.868Z,100.00
2023-09-06T20:07:23.490Z,100.00
2023-09-06T20:09:51.905Z,100.00
2023-09-06T20:12:18.718Z,100.00
2023-09-06T20:14:46.027Z,100.00
2023-09-06T20:17:13.633Z,100.00
2023-09-06T20:19:41.125Z,100.00
2023-09-06T20:22:08.762Z,100.00
2023-09-06T20:24:37.581Z,100.00
2023-09-06T20:27:04.586Z,100.00
2023-09-06T20:29:34.030Z,100.00
2023-09-06T20:32:01.866Z,100.00
2023-09-06T20:34:28.867Z,100.00
2023-09-06T20:36:56.547Z,100.00
2023-09-06T20:39:24.575Z,100.00
2023-09-06T20:41:52.448Z,100.00
2023-09-06T20:44:19.945Z,100.00
2023-09-06T20:46:48.813Z,100.00
2023-09-06T20:49:17.604Z,100.00
2023-09-06T20:51:46.255Z,100.00
2023-09-06T20:54:14.442Z,100.00
2023-09-06T20:56:42.493Z,100.00
2023-09-06T20:59:09.897Z,100.00
2023-09-06T21:01:38.743Z,100.00
2023-09-06T21:04:06.092Z,100.00
2023-09-06T21:06:34.275Z,100.00
2023-09-06T21:09:02.162Z,100.00
2023-09-06T21:11:31.117Z,100.00
2023-09-06T21:13:59.410Z,100.00
2023-09-06T21:16:26.905Z,100.00
2023-09-06T21:18:54.649Z,100.00
2023-09-06T21:21:22.463Z,100.00
2023-09-06T21:23:50.053Z,100.00
2023-09-06T21:26:17.746Z,100.00
2023-09-06T21:28:44.883Z,100.00
2023-09-06T21:31:12.380Z,100.00
2023-09-06T21:33:39.681Z,100.00
2023-09-06T21:36:08.028Z,100.00
2023-09-06T21:38:37.061Z,100.00
2023-09-06T21:41:06.752Z,100.00
2023-09-06T21:43:35.831Z,100.00
2023-09-06T21:46:06.062Z,100.00
2023-09-06T21:48:33.833Z,100.00
2023-09-06T21:51:09.504Z,100.00
2023-09-06T21:53:38.157Z,100.00
2023-09-06T21:56:05.893Z,100.00
2023-09-06T21:58:35.570Z,100.00
2023-09-06T22:01:18.798Z,100.00
2023-09-06T22:04:05.369Z,100.00
2023-09-06T22:06:51.391Z,100.00
2023-09-06T22:09:37.416Z,100.00
2023-09-06T22:12:23.631Z,100.00
2023-09-06T22:14:51.713Z,100.00
2023-09-06T22:17:19.120Z,100.00
2023-09-06T22:19:47.414Z,100.00
2023-09-06T22:22:14.953Z,100.00
2023-09-06T22:24:43.678Z,100.00
2023-09-06T22:27:12.218Z,100.00
2023-09-06T22:29:40.210Z,100.00
2023-09-06T22:32:07.586Z,100.00
2023-09-06T22:34:37.517Z,100.00
2023-09-06T22:37:06.115Z,100.00
2023-09-06T22:39:36.258Z,100.00
2023-09-06T22:42:05.585Z,100.00
2023-09-06T22:44:33.861Z,100.00
2023-09-06T22:47:02.476Z,100.00
2023-09-06T22:49:31.081Z,100.00
2023-09-06T22:51:59.408Z,100.00
2023-09-06T22:54:26.628Z,100.00
2023-09-06T22:56:54.033Z,100.00
2023-09-06T22:59:22.492Z,100.00
2023-09-06T23:01:54.061Z,100.00
2023-09-06T23:04:21.618Z,100.00
2023-09-06T23:06:49.498Z,100.00
2023-09-06T23:09:20.805Z,100.00
2023-09-06T23:11:51.462Z,100.00
2023-09-06T23:14:19.624Z,100.00
2023-09-06T23:16:51.997Z,100.00
2023-09-06T23:19:29.085Z,100.00
2023-09-06T23:21:58.806Z,100.00
2023-09-06T23:24:26.379Z,100.00
2023-09-06T23:27:00.726Z,100.00
2023-09-06T23:29:36.751Z,100.00
2023-09-06T23:32:06.908Z,100.00
2023-09-06T23:34:36.786Z,100.00
2023-09-06T23:37:10.197Z,100.00
2023-09-06T23:39:42.394Z,100.00
2023-09-06T23:42:11.291Z,100.00
2023-09-06T23:44:42.701Z,100.00
2023-09-06T23:47:14.826Z,100.00
2023-09-06T23:49:45.015Z,100.00
2023-09-06T23:52:13.805Z,100.00
2023-09-06T23:54:47.734Z,100.00
2023-09-06T23:57:20.701Z,100.00
2023-09-06T23:59:49.512Z,100.00
